AAL242 KMIA-MUHA
Flight info
| Callsign | AAL242 |
|---|---|
| Flight time | N/A |
| Altitude | 32000 |
| Route | KMIA MUHA |
| Aircraft | B738/M-1111/L |
Departure
| Time | 2026-05-07 20:21 |
|---|---|
| Airport | Miami International Airport (KMIA) |
Arrival
| Time | N/A |
|---|---|
| Airport | José Martí International Airport (MUHA) |
| Time | Latitude | Longitude | Altitude | Speed | Heading |
|---|---|---|---|---|---|
| 2026-05-07 20:11 | 25.79895 | -80.27576 | 17 ft | 0 kts | 94° |
| 2026-05-07 20:12 | 25.79894 | -80.27562 | 19 ft | 5 kts | 94° |
| 2026-05-07 20:12 | 25.79919 | -80.27538 | 17 ft | 7 kts | 7° |
| 2026-05-07 20:13 | 25.79963 | -80.27571 | 16 ft | 10 kts | 274° |
| 2026-05-07 20:13 | 25.79965 | -80.27661 | 16 ft | 13 kts | 273° |
| 2026-05-07 20:13 | 25.79966 | -80.27778 | 14 ft | 17 kts | 269° |
| 2026-05-07 20:13 | 25.79966 | -80.27928 | 11 ft | 21 kts | 271° |
| 2026-05-07 20:14 | 25.79964 | -80.28081 | 11 ft | 13 kts | 266° |
| 2026-05-07 20:14 | 25.80003 | -80.28145 | 13 ft | 10 kts | 340° |
| 2026-05-07 20:14 | 25.80042 | -80.28191 | 15 ft | 7 kts | 275° |
| 2026-05-07 20:14 | 25.80039 | -80.28246 | 14 ft | 7 kts | 266° |
| 2026-05-07 20:15 | 25.80036 | -80.28306 | 14 ft | 8 kts | 266° |
| 2026-05-07 20:15 | 25.80031 | -80.28386 | 14 ft | 13 kts | 266° |
| 2026-05-07 20:15 | 25.80026 | -80.28493 | 15 ft | 13 kts | 269° |
| 2026-05-07 20:15 | 25.80025 | -80.28583 | 18 ft | 10 kts | 269° |
| 2026-05-07 20:16 | 25.80023 | -80.28662 | 20 ft | 10 kts | 269° |
| 2026-05-07 20:16 | 25.80022 | -80.28738 | 22 ft | 10 kts | 269° |
| 2026-05-07 20:16 | 25.80019 | -80.28812 | 21 ft | 10 kts | 264° |
| 2026-05-07 20:16 | 25.80012 | -80.28902 | 20 ft | 14 kts | 264° |
| 2026-05-07 20:17 | 25.80002 | -80.29019 | 19 ft | 15 kts | 264° |
| 2026-05-07 20:17 | 25.79995 | -80.29134 | 21 ft | 15 kts | 270° |
| 2026-05-07 20:17 | 25.79995 | -80.29243 | 20 ft | 14 kts | 270° |
| 2026-05-07 20:17 | 25.79995 | -80.29353 | 17 ft | 15 kts | 269° |
| 2026-05-07 20:18 | 25.79990 | -80.29476 | 13 ft | 17 kts | 267° |
| 2026-05-07 20:18 | 25.79985 | -80.29605 | 13 ft | 16 kts | 267° |
| 2026-05-07 20:18 | 25.79977 | -80.29729 | 15 ft | 16 kts | 265° |
| 2026-05-07 20:18 | 25.79972 | -80.29847 | 11 ft | 15 kts | 267° |
| 2026-05-07 20:19 | 25.79975 | -80.29961 | 10 ft | 14 kts | 282° |
| 2026-05-07 20:19 | 25.80002 | -80.30065 | 12 ft | 14 kts | 287° |
| 2026-05-07 20:19 | 25.80066 | -80.30115 | 14 ft | 13 kts | 31° |
| 2026-05-07 20:19 | 25.80076 | -80.30016 | 11 ft | 13 kts | 88° |
| 2026-05-07 20:20 | 25.80077 | -80.29982 | 11 ft | 0 kts | 87° |
| 2026-05-07 20:20 | 25.80078 | -80.29971 | 11 ft | 9 kts | 87° |
| 2026-05-07 20:20 | 25.80097 | -80.29515 | 13 ft | 111 kts | 88° |
| 2026-05-07 20:20 | 25.80137 | -80.28343 | 72 ft | 190 kts | 91° |
| 2026-05-07 20:21 | 25.80166 | -80.26690 | 726 ft | 235 kts | 91° |
| 2026-05-07 20:21 | 25.80167 | -80.24712 | 1415 ft | 274 kts | 90° |
| 2026-05-07 20:21 | 25.80379 | -80.22592 | 2339 ft | 275 kts | 79° |
| 2026-05-07 20:21 | 25.80907 | -80.20554 | 3037 ft | 275 kts | 69° |
| 2026-05-07 20:22 | 25.81677 | -80.18647 | 3515 ft | 270 kts | 60° |
| 2026-05-07 20:22 | 25.82729 | -80.16908 | 3521 ft | 278 kts | 52° |
| 2026-05-07 20:22 | 25.83965 | -80.15411 | 4342 ft | 246 kts | 38° |
| 2026-05-07 20:22 | 25.85372 | -80.14410 | 4803 ft | 240 kts | 25° |